sensor_id;sensor_type;location;lat;lon;timestamp;temperature;humidity
48264;DHT22;34086;51.076;13.722;2023-06-24T00:00:18;15.90;99.90
48264;DHT22;34086;51.076;13.722;2023-06-24T00:01:21;15.90;99.90
48264;DHT22;34086;51.076;13.722;2023-06-24T00:02:23;15.90;99.90
48264;DHT22;34086;51.076;13.722;2023-06-24T00:03:26;15.90;99.90
48264;DHT22;34086;51.076;13.722;2023-06-24T00:04:27;15.90;99.90
48264;DHT22;34086;51.076;13.722;2023-06-24T00:05:27;15.90;99.90
48264;DHT22;34086;51.076;13.722;2023-06-24T00:06:28;15.90;99.90
48264;DHT22;34086;51.076;13.722;2023-06-24T00:07:28;15.90;99.90
48264;DHT22;34086;51.076;13.722;2023-06-24T00:08:29;15.90;99.90
48264;DHT22;34086;51.076;13.722;2023-06-24T00:09:34;15.90;99.90
48264;DHT22;34086;51.076;13.722;2023-06-24T00:10:35;15.90;99.90
48264;DHT22;34086;51.076;13.722;2023-06-24T00:11:36;15.80;99.90
48264;DHT22;34086;51.076;13.722;2023-06-24T00:12:36;15.90;99.90
48264;DHT22;34086;51.076;13.722;2023-06-24T00:13:40;15.80;99.90
48264;DHT22;34086;51.076;13.722;2023-06-24T00:14:40;15.80;99.90
48264;DHT22;34086;51.076;13.722;2023-06-24T00:15:41;15.80;99.90
48264;DHT22;34086;51.076;13.722;2023-06-24T00:16:43;15.80;99.90
48264;DHT22;34086;51.076;13.722;2023-06-24T00:17:43;15.80;99.90
48264;DHT22;34086;51.076;13.722;2023-06-24T00:18:44;15.80;99.90
48264;DHT22;34086;51.076;13.722;2023-06-24T00:19:45;15.80;99.90
48264;DHT22;34086;51.076;13.722;2023-06-24T00:20:45;15.70;99.90
48264;DHT22;34086;51.076;13.722;2023-06-24T00:21:46;15.70;99.90
48264;DHT22;34086;51.076;13.722;2023-06-24T00:22:47;15.70;99.90
48264;DHT22;34086;51.076;13.722;2023-06-24T00:23:48;15.70;99.90
48264;DHT22;34086;51.076;13.722;2023-06-24T00:24:49;15.80;99.90
48264;DHT22;34086;51.076;13.722;2023-06-24T00:25:51;15.80;99.90
48264;DHT22;34086;51.076;13.722;2023-06-24T00:26:52;15.80;99.90
48264;DHT22;34086;51.076;13.722;2023-06-24T00:27:53;15.80;99.90
48264;DHT22;34086;51.076;13.722;2023-06-24T00:28:56;15.80;99.90
48264;DHT22;34086;51.076;13.722;2023-06-24T00:29:57;15.80;99.90
48264;DHT22;34086;51.076;13.722;2023-06-24T00:30:57;15.80;99.90
48264;DHT22;34086;51.076;13.722;2023-06-24T00:31:58;15.80;99.90
48264;DHT22;34086;51.076;13.722;2023-06-24T00:32:58;15.80;99.90
48264;DHT22;34086;51.076;13.722;2023-06-24T00:33:59;15.80;99.90
48264;DHT22;34086;51.076;13.722;2023-06-24T00:34:59;15.80;99.90
48264;DHT22;34086;51.076;13.722;2023-06-24T00:36:00;15.80;99.90
48264;DHT22;34086;51.076;13.722;2023-06-24T00:37:00;15.80;99.90
48264;DHT22;34086;51.076;13.722;2023-06-24T00:38:03;15.90;99.90
48264;DHT22;34086;51.076;13.722;2023-06-24T00:39:05;15.80;99.90
48264;DHT22;34086;51.076;13.722;2023-06-24T00:40:06;15.80;99.90
48264;DHT22;34086;51.076;13.722;2023-06-24T00:41:10;15.80;99.90
48264;DHT22;34086;51.076;13.722;2023-06-24T00:42:12;15.80;99.90
48264;DHT22;34086;51.076;13.722;2023-06-24T00:43:13;15.80;99.90
48264;DHT22;34086;51.076;13.722;2023-06-24T00:44:14;15.80;99.90
48264;DHT22;34086;51.076;13.722;2023-06-24T00:45:14;15.80;99.90
48264;DHT22;34086;51.076;13.722;2023-06-24T00:46:18;15.80;99.90
48264;DHT22;34086;51.076;13.722;2023-06-24T00:47:20;15.80;99.90
48264;DHT22;34086;51.076;13.722;2023-06-24T00:48:21;15.80;99.90
48264;DHT22;34086;51.076;13.722;2023-06-24T00:49:23;15.80;99.90
48264;DHT22;34086;51.076;13.722;2023-06-24T00:50:24;15.80;99.90
48264;DHT22;34086;51.076;13.722;2023-06-24T00:51:27;15.80;99.90
48264;DHT22;34086;51.076;13.722;2023-06-24T00:52:30;15.80;99.90
48264;DHT22;34086;51.076;13.722;2023-06-24T00:53:31;15.70;99.90
48264;DHT22;34086;51.076;13.722;2023-06-24T00:54:31;15.70;99.90
48264;DHT22;34086;51.076;13.722;2023-06-24T00:55:33;15.80;99.90
48264;DHT22;34086;51.076;13.722;2023-06-24T00:56:37;15.80;99.90
48264;DHT22;34086;51.076;13.722;2023-06-24T00:57:44;15.80;99.90
48264;DHT22;34086;51.076;13.722;2023-06-24T00:58:45;15.80;99.90
48264;DHT22;34086;51.076;13.722;2023-06-24T00:59:47;15.80;99.90
48264;DHT22;34086;51.076;13.722;2023-06-24T01:00:49;15.80;99.90
48264;DHT22;34086;51.076;13.722;2023-06-24T01:01:58;15.80;99.90
48264;DHT22;34086;51.076;13.722;2023-06-24T01:03:03;15.90;99.90
48264;DHT22;34086;51.076;13.722;2023-06-24T01:04:04;15.90;99.90
48264;DHT22;34086;51.076;13.722;2023-06-24T01:05:06;15.80;99.90
48264;DHT22;34086;51.076;13.722;2023-06-24T01:06:08;15.80;99.90
48264;DHT22;34086;51.076;13.722;2023-06-24T01:07:09;15.90;99.90
48264;DHT22;34086;51.076;13.722;2023-06-24T01:08:11;15.90;99.90
48264;DHT22;34086;51.076;13.722;2023-06-24T01:09:15;15.90;99.90
48264;DHT22;34086;51.076;13.722;2023-06-24T01:10:16;15.90;99.90
48264;DHT22;34086;51.076;13.722;2023-06-24T01:11:17;15.90;99.90
48264;DHT22;34086;51.076;13.722;2023-06-24T01:12:18;15.90;99.90
48264;DHT22;34086;51.076;13.722;2023-06-24T01:13:18;15.80;99.90
48264;DHT22;34086;51.076;13.722;2023-06-24T01:14:19;15.90;99.90
48264;DHT22;34086;51.076;13.722;2023-06-24T01:15:20;15.90;99.90
48264;DHT22;34086;51.076;13.722;2023-06-24T01:18:08;15.90;99.90
48264;DHT22;34086;51.076;13.722;2023-06-24T01:19:33;15.90;99.90
48264;DHT22;34086;51.076;13.722;2023-06-24T01:28:07;16.00;99.90
48264;DHT22;34086;51.076;13.722;2023-06-24T01:32:32;16.00;99.90
48264;DHT22;34086;51.076;13.722;2023-06-24T01:33:43;16.00;99.90
48264;DHT22;34086;51.076;13.722;2023-06-24T01:34:59;16.00;99.90
48264;DHT22;34086;51.076;13.722;2023-06-24T01:36:01;16.00;99.90
48264;DHT22;34086;51.076;13.722;2023-06-24T01:37:25;16.00;99.90
48264;DHT22;34086;51.076;13.722;2023-06-24T01:38:31;16.00;99.90
48264;DHT22;34086;51.076;13.722;2023-06-24T01:39:41;16.00;99.90
48264;DHT22;34086;51.076;13.722;2023-06-24T01:40:45;16.00;99.90
48264;DHT22;34086;51.076;13.722;2023-06-24T01:41:56;16.10;99.90
48264;DHT22;34086;51.076;13.722;2023-06-24T01:43:00;16.00;99.90
48264;DHT22;34086;51.076;13.722;2023-06-24T01:44:02;16.00;99.90
48264;DHT22;34086;51.076;13.722;2023-06-24T01:45:16;16.10;99.90
48264;DHT22;34086;51.076;13.722;2023-06-24T01:46:22;16.00;99.90
48264;DHT22;34086;51.076;13.722;2023-06-24T01:47:25;16.00;99.90
48264;DHT22;34086;51.076;13.722;2023-06-24T01:48:32;16.10;99.90
48264;DHT22;34086;51.076;13.722;2023-06-24T01:49:39;16.10;99.90
48264;DHT22;34086;51.076;13.722;2023-06-24T01:50:45;16.10;99.90
48264;DHT22;34086;51.076;13.722;2023-06-24T01:51:48;16.10;99.90
48264;DHT22;34086;51.076;13.722;2023-06-24T01:52:51;16.10;99.90
48264;DHT22;34086;51.076;13.722;2023-06-24T01:54:03;16.10;99.90
48264;DHT22;34086;51.076;13.722;2023-06-24T01:55:08;16.10;99.90
48264;DHT22;34086;51.076;13.722;2023-06-24T01:56:13;16.10;99.90
48264;DHT22;34086;51.076;13.722;2023-06-24T01:57:15;16.10;99.90
48264;DHT22;34086;51.076;13.722;2023-06-24T01:58:18;16.10;99.90
48264;DHT22;34086;51.076;13.722;2023-06-24T01:59:20;16.10;99.90
48264;DHT22;34086;51.076;13.722;2023-06-24T02:00:23;16.10;99.90
48264;DHT22;34086;51.076;13.722;2023-06-24T02:01:24;16.10;99.90
48264;DHT22;34086;51.076;13.722;2023-06-24T02:02:25;16.10;99.90
48264;DHT22;34086;51.076;13.722;2023-06-24T02:03:28;16.10;99.90
48264;DHT22;34086;51.076;13.722;2023-06-24T02:04:29;16.10;99.90
48264;DHT22;34086;51.076;13.722;2023-06-24T02:05:31;16.00;99.90
48264;DHT22;34086;51.076;13.722;2023-06-24T02:06:33;16.10;99.90
48264;DHT22;34086;51.076;13.722;2023-06-24T02:07:36;16.10;99.90
48264;DHT22;34086;51.076;13.722;2023-06-24T02:08:39;16.00;99.90
48264;DHT22;34086;51.076;13.722;2023-06-24T02:09:40;16.10;99.90
48264;DHT22;34086;51.076;13.722;2023-06-24T02:10:44;16.10;99.90
48264;DHT22;34086;51.076;13.722;2023-06-24T02:11:48;16.10;99.90
48264;DHT22;34086;51.076;13.722;2023-06-24T02:12:51;16.10;99.90
48264;DHT22;34086;51.076;13.722;2023-06-24T02:13:54;16.10;99.90
48264;DHT22;34086;51.076;13.722;2023-06-24T02:14:56;16.10;99.90
48264;DHT22;34086;51.076;13.722;2023-06-24T02:16:00;16.10;99.90
48264;DHT22;34086;51.076;13.722;2023-06-24T02:17:04;16.10;99.90
48264;DHT22;34086;51.076;13.722;2023-06-24T02:18:09;16.10;99.90
48264;DHT22;34086;51.076;13.722;2023-06-24T02:19:11;16.10;99.90
48264;DHT22;34086;51.076;13.722;2023-06-24T02:20:12;16.10;99.90
48264;DHT22;34086;51.076;13.722;2023-06-24T02:21:18;16.10;99.90
48264;DHT22;34086;51.076;13.722;2023-06-24T02:22:21;16.00;99.90
48264;DHT22;34086;51.076;13.722;2023-06-24T02:23:23;16.10;99.90
48264;DHT22;34086;51.076;13.722;2023-06-24T02:24:24;16.10;99.90
48264;DHT22;34086;51.076;13.722;2023-06-24T02:25:25;16.10;99.90
48264;DHT22;34086;51.076;13.722;2023-06-24T02:26:27;16.10;99.90
48264;DHT22;34086;51.076;13.722;2023-06-24T02:27:28;16.10;99.90
48264;DHT22;34086;51.076;13.722;2023-06-24T02:28:30;16.10;99.90
48264;DHT22;34086;51.076;13.722;2023-06-24T02:29:32;16.10;99.90
48264;DHT22;34086;51.076;13.722;2023-06-24T02:30:35;16.20;99.90
48264;DHT22;34086;51.076;13.722;2023-06-24T02:31:36;16.10;99.90
48264;DHT22;34086;51.076;13.722;2023-06-24T02:32:37;16.20;99.90
48264;DHT22;34086;51.076;13.722;2023-06-24T02:33:39;16.20;99.90
48264;DHT22;34086;51.076;13.722;2023-06-24T02:34:39;16.20;99.90
48264;DHT22;34086;51.076;13.722;2023-06-24T02:35:40;16.20;99.90
48264;DHT22;34086;51.076;13.722;2023-06-24T02:36:42;16.20;99.90
48264;DHT22;34086;51.076;13.722;2023-06-24T02:37:43;16.20;99.90
48264;DHT22;34086;51.076;13.722;2023-06-24T02:38:43;16.20;99.90
48264;DHT22;34086;51.076;13.722;2023-06-24T02:39:44;16.20;99.90
48264;DHT22;34086;51.076;13.722;2023-06-24T02:40:45;16.10;99.90
48264;DHT22;34086;51.076;13.722;2023-06-24T02:41:46;16.10;99.90
48264;DHT22;34086;51.076;13.722;2023-06-24T02:42:48;16.10;99.90
48264;DHT22;34086;51.076;13.722;2023-06-24T02:43:48;16.10;99.90
48264;DHT22;34086;51.076;13.722;2023-06-24T02:44:49;16.10;99.90
48264;DHT22;34086;51.076;13.722;2023-06-24T02:45:50;16.20;99.90
48264;DHT22;34086;51.076;13.722;2023-06-24T02:46:53;16.10;99.90
48264;DHT22;34086;51.076;13.722;2023-06-24T02:47:55;16.10;99.90
48264;DHT22;34086;51.076;13.722;2023-06-24T02:48:57;16.10;99.90
48264;DHT22;34086;51.076;13.722;2023-06-24T02:49:58;16.10;99.90
48264;DHT22;34086;51.076;13.722;2023-06-24T02:51:00;16.20;99.90
48264;DHT22;34086;51.076;13.722;2023-06-24T02:52:01;16.10;99.90
48264;DHT22;34086;51.076;13.722;2023-06-24T02:53:03;16.10;99.90
48264;DHT22;34086;51.076;13.722;2023-06-24T02:54:08;16.10;99.90
48264;DHT22;34086;51.076;13.722;2023-06-24T02:55:30;16.10;99.90
48264;DHT22;34086;51.076;13.722;2023-06-24T02:56:37;16.10;99.90
48264;DHT22;34086;51.076;13.722;2023-06-24T02:57:42;16.10;99.90
48264;DHT22;34086;51.076;13.722;2023-06-24T02:58:46;16.10;99.90
48264;DHT22;34086;51.076;13.722;2023-06-24T02:59:55;16.10;99.90
48264;DHT22;34086;51.076;13.722;2023-06-24T03:01:00;16.10;99.90
48264;DHT22;34086;51.076;13.722;2023-06-24T03:02:08;16.10;99.90
48264;DHT22;34086;51.076;13.722;2023-06-24T03:03:09;16.10;99.90
48264;DHT22;34086;51.076;13.722;2023-06-24T03:04:15;16.10;99.90
48264;DHT22;34086;51.076;13.722;2023-06-24T03:05:16;16.10;99.90
48264;DHT22;34086;51.076;13.722;2023-06-24T03:06:18;16.10;99.90
48264;DHT22;34086;51.076;13.722;2023-06-24T03:07:19;16.20;99.90
48264;DHT22;34086;51.076;13.722;2023-06-24T03:08:21;16.20;99.90
48264;DHT22;34086;51.076;13.722;2023-06-24T03:09:26;16.20;99.90
48264;DHT22;34086;51.076;13.722;2023-06-24T03:10:27;16.20;99.90
48264;DHT22;34086;51.076;13.722;2023-06-24T03:11:28;16.20;99.90
48264;DHT22;34086;51.076;13.722;2023-06-24T03:12:32;16.20;99.90
48264;DHT22;34086;51.076;13.722;2023-06-24T03:13:33;16.20;99.90
48264;DHT22;34086;51.076;13.722;2023-06-24T03:14:48;16.10;99.90
48264;DHT22;34086;51.076;13.722;2023-06-24T03:15:52;16.10;99.90
48264;DHT22;34086;51.076;13.722;2023-06-24T03:16:52;16.10;99.90
48264;DHT22;34086;51.076;13.722;2023-06-24T03:17:55;16.10;99.90
48264;DHT22;34086;51.076;13.722;2023-06-24T03:18:56;16.10;99.90
48264;DHT22;34086;51.076;13.722;2023-06-24T03:19:56;16.00;99.90
48264;DHT22;34086;51.076;13.722;2023-06-24T03:20:57;16.00;99.90
48264;DHT22;34086;51.076;13.722;2023-06-24T03:22:02;16.00;99.90
48264;DHT22;34086;51.076;13.722;2023-06-24T03:23:06;16.00;99.90
48264;DHT22;34086;51.076;13.722;2023-06-24T03:24:08;16.00;99.90
48264;DHT22;34086;51.076;13.722;2023-06-24T03:25:10;16.00;99.90
48264;DHT22;34086;51.076;13.722;2023-06-24T03:26:11;16.00;99.90
48264;DHT22;34086;51.076;13.722;2023-06-24T03:27:11;15.90;99.90
48264;DHT22;34086;51.076;13.722;2023-06-24T03:28:15;15.90;99.90
48264;DHT22;34086;51.076;13.722;2023-06-24T03:29:24;15.90;99.90
48264;DHT22;34086;51.076;13.722;2023-06-24T03:30:34;15.90;99.90
48264;DHT22;34086;51.076;13.722;2023-06-24T03:31:35;15.90;99.90
48264;DHT22;34086;51.076;13.722;2023-06-24T03:32:35;15.90;99.90
48264;DHT22;34086;51.076;13.722;2023-06-24T03:33:36;15.80;99.90
48264;DHT22;34086;51.076;13.722;2023-06-24T03:34:37;15.80;99.90
48264;DHT22;34086;51.076;13.722;2023-06-24T03:35:37;15.80;99.90
48264;DHT22;34086;51.076;13.722;2023-06-24T03:36:42;15.80;99.90
48264;DHT22;34086;51.076;13.722;2023-06-24T03:37:43;15.80;99.90
48264;DHT22;34086;51.076;13.722;2023-06-24T03:38:44;15.80;99.90
48264;DHT22;34086;51.076;13.722;2023-06-24T03:39:44;15.80;99.90
48264;DHT22;34086;51.076;13.722;2023-06-24T03:40:45;15.80;99.90
48264;DHT22;34086;51.076;13.722;2023-06-24T03:41:46;15.80;99.90
48264;DHT22;34086;51.076;13.722;2023-06-24T03:42:48;15.80;99.90
48264;DHT22;34086;51.076;13.722;2023-06-24T03:43:49;15.70;99.90
48264;DHT22;34086;51.076;13.722;2023-06-24T03:44:50;15.70;99.90
48264;DHT22;34086;51.076;13.722;2023-06-24T03:45:51;15.70;99.90
48264;DHT22;34086;51.076;13.722;2023-06-24T03:46:52;15.70;99.90
48264;DHT22;34086;51.076;13.722;2023-06-24T03:47:52;15.70;99.90
48264;DHT22;34086;51.076;13.722;2023-06-24T03:48:53;15.70;99.90
48264;DHT22;34086;51.076;13.722;2023-06-24T03:49:54;15.70;99.90
48264;DHT22;34086;51.076;13.722;2023-06-24T03:50:55;15.70;99.90
48264;DHT22;34086;51.076;13.722;2023-06-24T03:51:56;15.70;99.90
48264;DHT22;34086;51.076;13.722;2023-06-24T03:52:56;15.70;99.90
48264;DHT22;34086;51.076;13.722;2023-06-24T03:53:57;15.70;99.90
48264;DHT22;34086;51.076;13.722;2023-06-24T03:54:57;15.70;99.90
48264;DHT22;34086;51.076;13.722;2023-06-24T03:55:58;15.70;99.90
48264;DHT22;34086;51.076;13.722;2023-06-24T03:57:00;15.70;99.90
48264;DHT22;34086;51.076;13.722;2023-06-24T03:58:01;15.70;99.90
48264;DHT22;34086;51.076;13.722;2023-06-24T03:59:02;15.70;99.90
48264;DHT22;34086;51.076;13.722;2023-06-24T04:00:03;15.70;99.90
48264;DHT22;34086;51.076;13.722;2023-06-24T04:01:14;15.70;99.90
48264;DHT22;34086;51.076;13.722;2023-06-24T04:02:18;15.70;99.90
48264;DHT22;34086;51.076;13.722;2023-06-24T04:03:18;15.70;99.90
48264;DHT22;34086;51.076;13.722;2023-06-24T04:04:19;15.60;99.90
48264;DHT22;34086;51.076;13.722;2023-06-24T04:05:20;15.70;99.90
48264;DHT22;34086;51.076;13.722;2023-06-24T04:06:23;15.80;99.90
48264;DHT22;34086;51.076;13.722;2023-06-24T04:07:23;15.80;99.90
48264;DHT22;34086;51.076;13.722;2023-06-24T04:08:31;15.90;99.90
48264;DHT22;34086;51.076;13.722;2023-06-24T04:09:33;16.10;99.90
48264;DHT22;34086;51.076;13.722;2023-06-24T04:10:34;16.10;99.90
48264;DHT22;34086;51.076;13.722;2023-06-24T04:11:35;16.20;99.90
48264;DHT22;34086;51.076;13.722;2023-06-24T04:12:36;16.20;99.90
48264;DHT22;34086;51.076;13.722;2023-06-24T04:13:36;16.30;99.90
48264;DHT22;34086;51.076;13.722;2023-06-24T04:14:38;16.50;99.90
48264;DHT22;34086;51.076;13.722;2023-06-24T04:15:39;16.60;99.90
48264;DHT22;34086;51.076;13.722;2023-06-24T04:16:39;16.60;99.90
48264;DHT22;34086;51.076;13.722;2023-06-24T04:17:40;16.60;99.90
48264;DHT22;34086;51.076;13.722;2023-06-24T04:18:41;16.70;99.90
48264;DHT22;34086;51.076;13.722;2023-06-24T04:19:42;16.90;99.90
48264;DHT22;34086;51.076;13.722;2023-06-24T04:20:43;17.00;99.90
48264;DHT22;34086;51.076;13.722;2023-06-24T04:21:43;17.20;99.90
48264;DHT22;34086;51.076;13.722;2023-06-24T04:22:46;17.30;99.90
48264;DHT22;34086;51.076;13.722;2023-06-24T04:23:47;17.30;99.90
48264;DHT22;34086;51.076;13.722;2023-06-24T04:24:47;17.50;99.90
48264;DHT22;34086;51.076;13.722;2023-06-24T04:25:48;17.40;99.90
48264;DHT22;34086;51.076;13.722;2023-06-24T04:26:48;17.40;99.90
48264;DHT22;34086;51.076;13.722;2023-06-24T04:27:49;17.50;99.90
48264;DHT22;34086;51.076;13.722;2023-06-24T04:28:49;17.70;99.90
48264;DHT22;34086;51.076;13.722;2023-06-24T04:29:51;17.70;99.90
48264;DHT22;34086;51.076;13.722;2023-06-24T04:30:51;17.80;99.90
48264;DHT22;34086;51.076;13.722;2023-06-24T04:31:52;17.80;99.90
48264;DHT22;34086;51.076;13.722;2023-06-24T04:32:52;17.80;99.90
48264;DHT22;34086;51.076;13.722;2023-06-24T04:33:53;17.80;99.90
48264;DHT22;34086;51.076;13.722;2023-06-24T04:34:54;17.70;99.90
48264;DHT22;34086;51.076;13.722;2023-06-24T04:35:55;17.70;99.90
48264;DHT22;34086;51.076;13.722;2023-06-24T04:36:56;17.60;99.90
48264;DHT22;34086;51.076;13.722;2023-06-24T04:37:57;17.60;99.90
48264;DHT22;34086;51.076;13.722;2023-06-24T04:38:58;17.70;99.90
48264;DHT22;34086;51.076;13.722;2023-06-24T04:39:59;17.60;99.90
48264;DHT22;34086;51.076;13.722;2023-06-24T04:40:59;17.40;99.90
48264;DHT22;34086;51.076;13.722;2023-06-24T04:42:00;17.30;99.90
48264;DHT22;34086;51.076;13.722;2023-06-24T04:43:00;17.30;99.90
48264;DHT22;34086;51.076;13.722;2023-06-24T04:44:01;17.30;99.90
48264;DHT22;34086;51.076;13.722;2023-06-24T04:45:02;17.20;99.90
48264;DHT22;34086;51.076;13.722;2023-06-24T04:46:05;17.20;99.90
48264;DHT22;34086;51.076;13.722;2023-06-24T04:47:06;17.10;99.90
48264;DHT22;34086;51.076;13.722;2023-06-24T04:48:06;17.00;99.90
48264;DHT22;34086;51.076;13.722;2023-06-24T04:49:07;17.00;99.90
48264;DHT22;34086;51.076;13.722;2023-06-24T04:50:07;17.00;99.90
48264;DHT22;34086;51.076;13.722;2023-06-24T04:51:11;17.00;99.90
48264;DHT22;34086;51.076;13.722;2023-06-24T04:52:12;17.00;99.90
48264;DHT22;34086;51.076;13.722;2023-06-24T04:53:12;16.90;99.90
48264;DHT22;34086;51.076;13.722;2023-06-24T04:54:13;16.80;99.90
48264;DHT22;34086;51.076;13.722;2023-06-24T04:55:14;16.70;99.90
48264;DHT22;34086;51.076;13.722;2023-06-24T04:56:14;16.60;99.90
48264;DHT22;34086;51.076;13.722;2023-06-24T04:57:44;16.60;99.90
48264;DHT22;34086;51.076;13.722;2023-06-24T04:58:45;16.60;99.90
48264;DHT22;34086;51.076;13.722;2023-06-24T04:59:45;16.60;99.90
48264;DHT22;34086;51.076;13.722;2023-06-24T05:00:46;16.70;99.90
48264;DHT22;34086;51.076;13.722;2023-06-24T05:01:46;16.70;99.90
48264;DHT22;34086;51.076;13.722;2023-06-24T05:02:47;16.80;99.90
48264;DHT22;34086;51.076;13.722;2023-06-24T05:03:48;16.80;99.90
48264;DHT22;34086;51.076;13.722;2023-06-24T05:04:49;16.80;99.90
48264;DHT22;34086;51.076;13.722;2023-06-24T05:05:50;16.90;99.90
48264;DHT22;34086;51.076;13.722;2023-06-24T05:06:50;16.90;99.90
48264;DHT22;34086;51.076;13.722;2023-06-24T05:07:51;16.90;99.90
48264;DHT22;34086;51.076;13.722;2023-06-24T05:08:51;17.00;99.90
48264;DHT22;34086;51.076;13.722;2023-06-24T05:09:52;17.00;99.90
48264;DHT22;34086;51.076;13.722;2023-06-24T05:10:53;17.10;99.90
48264;DHT22;34086;51.076;13.722;2023-06-24T05:11:53;17.20;99.90
48264;DHT22;34086;51.076;13.722;2023-06-24T05:12:54;17.30;99.90
48264;DHT22;34086;51.076;13.722;2023-06-24T05:13:55;17.30;99.90
48264;DHT22;34086;51.076;13.722;2023-06-24T05:14:56;17.30;99.90
48264;DHT22;34086;51.076;13.722;2023-06-24T05:15:56;17.30;99.90
48264;DHT22;34086;51.076;13.722;2023-06-24T05:16:57;17.30;99.90
48264;DHT22;34086;51.076;13.722;2023-06-24T05:17:57;17.30;99.90
48264;DHT22;34086;51.076;13.722;2023-06-24T05:18:58;17.30;99.90
48264;DHT22;34086;51.076;13.722;2023-06-24T05:19:59;17.30;99.90
48264;DHT22;34086;51.076;13.722;2023-06-24T05:20:59;17.30;99.90
48264;DHT22;34086;51.076;13.722;2023-06-24T05:22:00;17.20;99.90
48264;DHT22;34086;51.076;13.722;2023-06-24T05:23:00;17.20;99.90
48264;DHT22;34086;51.076;13.722;2023-06-24T05:24:01;17.20;99.90
48264;DHT22;34086;51.076;13.722;2023-06-24T05:25:01;17.30;99.90
48264;DHT22;34086;51.076;13.722;2023-06-24T05:26:02;17.30;99.90
48264;DHT22;34086;51.076;13.722;2023-06-24T05:27:06;17.30;99.90
48264;DHT22;34086;51.076;13.722;2023-06-24T05:28:07;17.40;99.90
48264;DHT22;34086;51.076;13.722;2023-06-24T05:29:07;17.50;99.90
48264;DHT22;34086;51.076;13.722;2023-06-24T05:30:08;17.50;99.90
48264;DHT22;34086;51.076;13.722;2023-06-24T05:31:09;17.50;99.90
48264;DHT22;34086;51.076;13.722;2023-06-24T05:32:09;17.50;99.90
48264;DHT22;34086;51.076;13.722;2023-06-24T05:33:10;17.60;99.90
48264;DHT22;34086;51.076;13.722;2023-06-24T05:34:10;17.60;99.90
48264;DHT22;34086;51.076;13.722;2023-06-24T05:35:11;17.60;99.90
48264;DHT22;34086;51.076;13.722;2023-06-24T05:36:11;17.60;99.90
48264;DHT22;34086;51.076;13.722;2023-06-24T05:37:12;17.60;99.90
48264;DHT22;34086;51.076;13.722;2023-06-24T05:38:13;17.60;99.90
48264;DHT22;34086;51.076;13.722;2023-06-24T05:39:13;17.60;99.90
48264;DHT22;34086;51.076;13.722;2023-06-24T05:40:14;17.60;99.90
48264;DHT22;34086;51.076;13.722;2023-06-24T05:41:15;17.70;99.90
48264;DHT22;34086;51.076;13.722;2023-06-24T05:42:16;17.70;99.90
48264;DHT22;34086;51.076;13.722;2023-06-24T05:43:17;17.60;99.90
48264;DHT22;34086;51.076;13.722;2023-06-24T05:44:17;17.60;99.90
48264;DHT22;34086;51.076;13.722;2023-06-24T05:45:18;17.60;99.90
48264;DHT22;34086;51.076;13.722;2023-06-24T05:46:19;17.60;99.90
48264;DHT22;34086;51.076;13.722;2023-06-24T05:47:20;17.60;99.90
48264;DHT22;34086;51.076;13.722;2023-06-24T05:48:20;17.70;99.90
48264;DHT22;34086;51.076;13.722;2023-06-24T05:49:21;17.60;99.90
48264;DHT22;34086;51.076;13.722;2023-06-24T05:50:21;17.60;99.90
48264;DHT22;34086;51.076;13.722;2023-06-24T05:51:22;17.50;99.90
48264;DHT22;34086;51.076;13.722;2023-06-24T05:52:22;17.50;99.90
48264;DHT22;34086;51.076;13.722;2023-06-24T05:53:23;17.50;99.90
48264;DHT22;34086;51.076;13.722;2023-06-24T05:54:25;17.50;99.90
48264;DHT22;34086;51.076;13.722;2023-06-24T05:55:25;17.50;99.90
48264;DHT22;34086;51.076;13.722;2023-06-24T05:56:26;17.50;99.90
48264;DHT22;34086;51.076;13.722;2023-06-24T05:57:26;17.50;99.90
48264;DHT22;34086;51.076;13.722;2023-06-24T05:58:27;17.50;99.90
48264;DHT22;34086;51.076;13.722;2023-06-24T05:59:28;17.50;99.90
48264;DHT22;34086;51.076;13.722;2023-06-24T06:00:29;17.60;99.90
48264;DHT22;34086;51.076;13.722;2023-06-24T06:01:29;17.60;99.90
48264;DHT22;34086;51.076;13.722;2023-06-24T06:02:30;17.50;99.90
48264;DHT22;34086;51.076;13.722;2023-06-24T06:03:31;17.40;99.90
48264;DHT22;34086;51.076;13.722;2023-06-24T06:04:32;17.40;99.90
48264;DHT22;34086;51.076;13.722;2023-06-24T06:05:33;17.40;99.90
48264;DHT22;34086;51.076;13.722;2023-06-24T06:06:33;17.30;99.90
48264;DHT22;34086;51.076;13.722;2023-06-24T06:07:34;17.20;99.90
48264;DHT22;34086;51.076;13.722;2023-06-24T06:08:35;17.20;99.90
48264;DHT22;34086;51.076;13.722;2023-06-24T06:09:35;17.20;99.90
48264;DHT22;34086;51.076;13.722;2023-06-24T06:10:36;17.10;99.90
48264;DHT22;34086;51.076;13.722;2023-06-24T06:11:37;17.10;99.90
48264;DHT22;34086;51.076;13.722;2023-06-24T06:12:37;17.10;99.90
48264;DHT22;34086;51.076;13.722;2023-06-24T06:13:38;17.10;99.90
48264;DHT22;34086;51.076;13.722;2023-06-24T06:14:38;17.10;99.90
48264;DHT22;34086;51.076;13.722;2023-06-24T06:15:39;17.10;99.90
48264;DHT22;34086;51.076;13.722;2023-06-24T06:16:40;17.10;99.90
48264;DHT22;34086;51.076;13.722;2023-06-24T06:17:41;17.20;99.90
48264;DHT22;34086;51.076;13.722;2023-06-24T06:18:41;17.20;99.90
48264;DHT22;34086;51.076;13.722;2023-06-24T06:19:42;17.20;99.90
48264;DHT22;34086;51.076;13.722;2023-06-24T06:20:42;17.20;99.90
48264;DHT22;34086;51.076;13.722;2023-06-24T06:21:43;17.20;99.90
48264;DHT22;34086;51.076;13.722;2023-06-24T06:22:43;17.20;99.90
48264;DHT22;34086;51.076;13.722;2023-06-24T06:23:44;17.20;99.90
48264;DHT22;34086;51.076;13.722;2023-06-24T06:24:44;17.20;99.90
48264;DHT22;34086;51.076;13.722;2023-06-24T06:25:45;17.20;99.90
48264;DHT22;34086;51.076;13.722;2023-06-24T06:26:46;17.20;99.90
48264;DHT22;34086;51.076;13.722;2023-06-24T06:27:47;17.20;99.90
48264;DHT22;34086;51.076;13.722;2023-06-24T06:28:47;17.30;99.90
48264;DHT22;34086;51.076;13.722;2023-06-24T06:29:48;17.30;99.90
48264;DHT22;34086;51.076;13.722;2023-06-24T06:30:48;17.30;99.90
48264;DHT22;34086;51.076;13.722;2023-06-24T06:31:49;17.20;99.90
48264;DHT22;34086;51.076;13.722;2023-06-24T06:32:49;17.20;99.90
48264;DHT22;34086;51.076;13.722;2023-06-24T06:33:50;17.20;99.90
48264;DHT22;34086;51.076;13.722;2023-06-24T06:34:51;17.20;99.90
48264;DHT22;34086;51.076;13.722;2023-06-24T06:35:51;17.10;99.90
48264;DHT22;34086;51.076;13.722;2023-06-24T06:36:52;17.10;99.90
48264;DHT22;34086;51.076;13.722;2023-06-24T06:37:52;17.10;99.90